createdAt,value
2022-09-15T00:01:29.813Z,5.30
2022-09-15T00:03:58.187Z,7.43
2022-09-15T00:06:26.497Z,9.10
2022-09-15T00:08:55.049Z,4.97
2022-09-15T00:11:27.213Z,8.40
2022-09-15T00:13:56.977Z,7.73
2022-09-15T00:16:27.022Z,5.50
2022-09-15T00:18:55.813Z,3.90
2022-09-15T00:21:25.927Z,6.30
2022-09-15T00:23:54.855Z,7.50
2022-09-15T00:26:27.018Z,1.10
2022-09-15T00:28:55.813Z,4.67
2022-09-15T00:31:26.229Z,7.07
2022-09-15T00:33:58.017Z,7.73
2022-09-15T00:36:27.119Z,6.73
2022-09-15T00:38:56.038Z,5.50
2022-09-15T00:41:26.136Z,7.03
2022-09-15T00:43:56.185Z,5.73
2022-09-15T00:46:26.350Z,5.97
2022-09-15T00:49:00.855Z,5.43
2022-09-15T00:51:35.514Z,5.97
2022-09-15T00:54:08.424Z,7.03
2022-09-15T00:56:40.053Z,3.10
2022-09-15T00:59:12.786Z,6.90
2022-09-15T01:01:45.029Z,6.20
2022-09-15T01:04:14.348Z,5.87
2022-09-15T01:06:50.558Z,6.67
2022-09-15T01:09:23.659Z,7.13
2022-09-15T01:11:53.306Z,5.47
2022-09-15T01:14:21.390Z,4.67
2022-09-15T01:16:58.060Z,8.27
2022-09-15T01:20:00.148Z,5.17
2022-09-15T01:22:37.934Z,4.97
2022-09-15T01:25:11.359Z,3.17
2022-09-15T01:28:08.095Z,4.70
2022-09-15T01:30:41.140Z,6.60
2022-09-15T01:33:26.150Z,3.57
2022-09-15T01:36:02.035Z,8.50
2022-09-15T01:38:39.902Z,5.23
2022-09-15T01:41:13.054Z,4.87
2022-09-15T01:43:47.244Z,6.53
2022-09-15T01:46:18.747Z,5.70
2022-09-15T01:48:49.375Z,4.93
2022-09-15T01:51:18.019Z,4.83
2022-09-15T01:53:47.477Z,2.40
2022-09-15T01:56:15.922Z,3.53
2022-09-15T01:58:44.173Z,5.27
2022-09-15T02:01:19.029Z,5.57
2022-09-15T02:03:51.068Z,7.87
2022-09-15T02:06:25.562Z,7.20
2022-09-15T02:08:58.656Z,6.37
2022-09-15T02:11:28.301Z,5.03
2022-09-15T02:14:03.812Z,4.23
2022-09-15T02:16:36.628Z,4.20
2022-09-15T02:19:11.214Z,4.70
2022-09-15T02:21:53.549Z,5.57
2022-09-15T02:24:26.949Z,10.87
2022-09-15T02:26:56.502Z,4.57
2022-09-15T02:29:28.463Z,4.77
2022-09-15T02:32:06.884Z,4.00
2022-09-15T02:34:38.629Z,2.93
2022-09-15T02:37:07.969Z,5.50
2022-09-15T02:39:40.936Z,2.77
2022-09-15T02:42:09.619Z,7.27
2022-09-15T02:44:37.836Z,4.77
2022-09-15T02:47:07.674Z,7.10
2022-09-15T02:49:35.842Z,2.87
2022-09-15T02:52:04.477Z,3.80
2022-09-15T02:54:32.515Z,3.07
2022-09-15T02:57:01.299Z,1.97
2022-09-15T02:59:49.820Z,6.97
2022-09-15T03:02:20.836Z,1.57
2022-09-15T03:04:49.735Z,2.33
2022-09-15T03:07:18.577Z,3.60
2022-09-15T03:09:46.783Z,4.03
2022-09-15T03:12:15.100Z,4.83
2022-09-15T03:14:43.461Z,3.70
2022-09-15T03:17:11.677Z,2.37
2022-09-15T03:19:41.316Z,4.07
2022-09-15T03:22:09.605Z,2.40
2022-09-15T03:24:38.499Z,4.63
2022-09-15T03:27:07.069Z,5.43
2022-09-15T03:29:35.073Z,2.80
2022-09-15T03:32:04.100Z,3.30
2022-09-15T03:34:32.943Z,5.40
2022-09-15T03:37:02.565Z,6.20
2022-09-15T03:39:30.675Z,1.90
2022-09-15T03:41:58.870Z,1.43
2022-09-15T03:44:27.115Z,2.50
2022-09-15T03:46:55.229Z,3.03
2022-09-15T03:49:24.574Z,3.23
2022-09-15T03:51:52.734Z,2.27
2022-09-15T03:54:22.590Z,3.57
2022-09-15T03:56:52.024Z,2.27
2022-09-15T03:59:21.245Z,4.90
2022-09-15T04:01:50.570Z,2.13
2022-09-15T04:04:18.953Z,1.53
2022-09-15T04:06:47.193Z,2.40
2022-09-15T04:09:15.461Z,3.00
2022-09-15T04:11:45.268Z,2.67
2022-09-15T04:14:13.242Z,2.77
2022-09-15T04:16:41.501Z,4.27
2022-09-15T04:19:09.923Z,3.00
2022-09-15T04:21:38.387Z,5.30
2022-09-15T04:24:06.763Z,5.53
2022-09-15T04:26:36.983Z,4.50
2022-09-15T04:29:12.730Z,5.40
2022-09-15T04:31:41.209Z,3.90
2022-09-15T04:34:10.282Z,3.30
2022-09-15T04:36:38.680Z,2.20
2022-09-15T04:39:07.611Z,2.47
2022-09-15T04:41:35.572Z,6.03
2022-09-15T04:44:04.553Z,4.83
2022-09-15T04:46:34.320Z,2.27
2022-09-15T04:49:02.484Z,10.50
2022-09-15T04:51:31.186Z,6.63
2022-09-15T04:53:59.506Z,3.87
2022-09-15T04:56:29.064Z,4.17
2022-09-15T04:59:03.636Z,8.37
2022-09-15T05:01:36.204Z,5.27
2022-09-15T05:04:05.840Z,3.80
2022-09-15T05:06:35.068Z,4.63
2022-09-15T05:09:09.823Z,1.50
2022-09-15T05:11:39.213Z,1.33
2022-09-15T05:14:10.094Z,3.03
2022-09-15T05:16:40.890Z,2.60
2022-09-15T05:19:09.668Z,1.30
2022-09-15T05:21:37.737Z,4.27
2022-09-15T05:24:06.258Z,2.80
2022-09-15T05:26:34.524Z,1.37
2022-09-15T05:29:02.906Z,1.37
2022-09-15T05:31:34.212Z,1.37
2022-09-15T05:34:06.077Z,6.83
2022-09-15T05:36:34.688Z,15.63
2022-09-15T05:39:03.077Z,1.53
2022-09-15T05:41:31.648Z,4.33
2022-09-15T05:44:00.577Z,2.53
2022-09-15T05:46:30.285Z,2.83
2022-09-15T05:48:59.877Z,2.03
2022-09-15T05:51:30.626Z,0.40
2022-09-15T05:53:58.628Z,2.90
2022-09-15T05:56:26.798Z,0.47
2022-09-15T05:58:55.135Z,0.90
2022-09-15T06:01:25.358Z,1.03
2022-09-15T06:03:54.285Z,2.73
2022-09-15T06:06:23.469Z,2.67
2022-09-15T06:08:58.081Z,0.60
2022-09-15T06:11:28.725Z,1.40
2022-09-15T06:13:57.188Z,2.73
2022-09-15T06:16:26.830Z,2.40
2022-09-15T06:18:55.458Z,2.43
2022-09-15T06:21:25.616Z,0.77
2022-09-15T06:23:55.996Z,3.23
2022-09-15T06:26:24.886Z,0.93
2022-09-15T06:28:54.925Z,3.40
2022-09-15T06:31:24.089Z,5.73
2022-09-15T06:33:54.729Z,4.03
2022-09-15T06:36:24.636Z,1.60
2022-09-15T06:38:53.387Z,3.20
2022-09-15T06:41:23.720Z,1.90
2022-09-15T06:43:53.316Z,3.27
2022-09-15T06:46:23.498Z,3.93
2022-09-15T06:48:52.385Z,2.73
2022-09-15T06:51:22.793Z,3.67
2022-09-15T06:53:51.431Z,1.77
2022-09-15T06:56:21.842Z,1.97
2022-09-15T06:58:52.020Z,1.63
2022-09-15T07:01:23.192Z,1.00
2022-09-15T07:03:51.503Z,1.87
2022-09-15T07:06:20.155Z,1.63
2022-09-15T07:08:49.832Z,1.67
2022-09-15T07:11:18.831Z,2.73
2022-09-15T07:13:50.319Z,2.50
2022-09-15T07:16:19.783Z,0.97
2022-09-15T07:18:48.554Z,0.93
2022-09-15T07:21:20.336Z,1.83
2022-09-15T07:23:49.357Z,1.73
2022-09-15T07:26:19.298Z,3.10
2022-09-15T07:28:50.118Z,0.70
2022-09-15T07:31:22.741Z,1.77
2022-09-15T07:33:51.192Z,0.60
2022-09-15T07:36:20.500Z,1.90
2022-09-15T07:38:50.462Z,2.13
2022-09-15T07:41:19.985Z,1.83
2022-09-15T07:43:49.200Z,3.13
2022-09-15T07:46:18.084Z,7.67
2022-09-15T07:48:48.331Z,3.57
2022-09-15T07:51:17.791Z,4.17
2022-09-15T07:53:47.334Z,5.53
2022-09-15T07:56:17.752Z,5.27
2022-09-15T07:58:46.149Z,3.60
2022-09-15T08:01:15.163Z,2.43
2022-09-15T08:03:44.363Z,5.47
2022-09-15T08:06:14.898Z,3.40
2022-09-15T08:08:44.159Z,7.50
2022-09-15T08:11:18.501Z,1.90
2022-09-15T08:13:47.570Z,3.17
2022-09-15T08:16:18.066Z,2.67
2022-09-15T08:18:46.741Z,2.10
2022-09-15T08:21:18.136Z,1.50
2022-09-15T08:23:46.310Z,2.83
2022-09-15T08:26:14.760Z,2.57
2022-09-15T08:28:43.652Z,1.47
2022-09-15T08:31:14.604Z,3.50
2022-09-15T08:33:45.713Z,4.00
2022-09-15T08:36:15.948Z,3.77
2022-09-15T08:38:45.692Z,1.80
2022-09-15T08:41:20.037Z,3.37
2022-09-15T08:43:53.336Z,3.47
2022-09-15T08:46:26.172Z,1.27
2022-09-15T08:49:02.950Z,0.83
2022-09-15T08:51:42.776Z,2.37
2022-09-15T08:54:17.634Z,1.43
2022-09-15T08:56:46.259Z,1.63
2022-09-15T08:59:17.024Z,2.47
2022-09-15T09:01:58.832Z,1.83
2022-09-15T09:04:50.194Z,0.97
2022-09-15T09:07:34.891Z,4.20
2022-09-15T09:10:12.798Z,1.23
2022-09-15T09:12:55.410Z,1.13
2022-09-15T09:15:34.049Z,0.30
2022-09-15T09:18:20.627Z,0.87
2022-09-15T09:20:59.285Z,1.10
2022-09-15T09:23:31.323Z,3.17
2022-09-15T09:26:02.008Z,1.20
2022-09-15T09:28:32.948Z,2.10
2022-09-15T09:31:08.467Z,4.87
2022-09-15T09:33:47.591Z,1.40
2022-09-15T09:36:16.285Z,0.77
2022-09-15T09:38:48.248Z,1.07
2022-09-15T09:41:19.825Z,0.90
2022-09-15T09:43:50.323Z,2.60
2022-09-15T09:46:20.687Z,1.50
2022-09-15T09:48:54.109Z,2.20
2022-09-15T09:51:36.934Z,2.97
2022-09-15T09:54:11.906Z,3.23
2022-09-15T09:56:41.181Z,1.97
2022-09-15T09:59:33.958Z,1.60
2022-09-15T10:02:19.269Z,3.30
2022-09-15T10:04:50.056Z,1.60
2022-09-15T10:07:20.483Z,1.20
2022-09-15T10:09:58.638Z,2.03
2022-09-15T10:12:33.424Z,6.00
2022-09-15T10:15:03.875Z,1.17
2022-09-15T10:17:44.265Z,1.13
2022-09-15T10:20:26.091Z,1.63
2022-09-15T10:23:04.075Z,0.93
2022-09-15T10:25:57.496Z,1.07
2022-09-15T10:28:27.043Z,1.90
2022-09-15T10:31:05.088Z,1.30
2022-09-15T10:33:36.049Z,4.63
2022-09-15T10:36:08.830Z,2.53
2022-09-15T10:38:45.844Z,1.37
2022-09-15T10:41:25.490Z,1.67
2022-09-15T10:44:28.845Z,1.10
2022-09-15T10:47:10.282Z,1.10
2022-09-15T10:49:50.066Z,1.43
2022-09-15T10:52:28.216Z,1.90
2022-09-15T10:55:27.808Z,0.83
2022-09-15T10:58:24.662Z,1.23
2022-09-15T11:01:03.488Z,0.67
2022-09-15T11:04:12.597Z,1.07
2022-09-15T11:06:47.045Z,4.23
2022-09-15T11:09:20.608Z,2.63
2022-09-15T11:12:08.546Z,4.20
2022-09-15T11:14:49.068Z,0.93
2022-09-15T11:17:36.013Z,2.60
2022-09-15T11:20:30.186Z,3.70
2022-09-15T11:23:05.010Z,1.67
2022-09-15T11:25:36.860Z,1.23
2022-09-15T11:28:14.195Z,1.13
2022-09-15T11:30:53.633Z,2.40
2022-09-15T11:33:27.463Z,2.93
2022-09-15T11:36:00.570Z,2.77
2022-09-15T11:38:37.057Z,3.00
2022-09-15T11:41:19.242Z,3.10
2022-09-15T11:43:56.862Z,1.67
2022-09-15T11:46:32.058Z,1.23
2022-09-15T11:49:05.622Z,1.53
2022-09-15T11:51:40.622Z,0.87
2022-09-15T11:54:15.008Z,4.13
2022-09-15T11:56:46.465Z,2.67
2022-09-15T11:59:26.118Z,0.73
2022-09-15T12:02:03.508Z,2.83
2022-09-15T12:04:35.357Z,2.47
2022-09-15T12:07:13.835Z,1.00
2022-09-15T12:09:42.916Z,2.57
2022-09-15T12:12:16.884Z,6.67
2022-09-15T12:14:46.730Z,3.00
2022-09-15T12:17:20.524Z,4.77
2022-09-15T12:19:55.713Z,2.83
2022-09-15T12:22:29.163Z,1.33
2022-09-15T12:25:02.959Z,1.33
2022-09-15T12:27:31.418Z,4.20
2022-09-15T12:30:01.371Z,3.97
2022-09-15T12:32:33.537Z,2.47
2022-09-15T12:35:13.367Z,6.40
2022-09-15T12:37:45.425Z,1.83
2022-09-15T12:40:34.246Z,1.00
2022-09-15T12:43:04.733Z,2.47
2022-09-15T12:45:36.677Z,1.53
2022-09-15T12:48:13.749Z,3.20
2022-09-15T12:50:44.222Z,2.10
2022-09-15T12:53:20.510Z,3.23
2022-09-15T12:55:52.448Z,0.60
2022-09-15T12:58:27.809Z,2.07
2022-09-15T13:01:34.419Z,3.47
2022-09-15T13:04:44.518Z,0.83
2022-09-15T13:07:38.724Z,2.50
2022-09-15T13:10:39.651Z,3.23
2022-09-15T13:13:23.929Z,5.53
2022-09-15T13:15:56.300Z,0.83
2022-09-15T13:18:26.565Z,0.97
2022-09-15T13:21:00.668Z,0.70
2022-09-15T13:23:38.513Z,1.70
2022-09-15T13:26:13.869Z,1.10
2022-09-15T13:28:43.281Z,0.20
2022-09-15T13:31:29.935Z,2.33
2022-09-15T13:38:12.639Z,0.27
2022-09-15T13:41:03.564Z,0.50
2022-09-15T13:43:46.400Z,0.90
2022-09-15T13:46:29.263Z,3.33
2022-09-15T13:49:17.125Z,0.77
2022-09-15T13:51:53.407Z,1.67
2022-09-15T13:54:22.031Z,1.30
2022-09-15T13:56:53.336Z,3.40
2022-09-15T13:59:25.831Z,1.80
2022-09-15T14:01:55.089Z,1.53
2022-09-15T14:04:25.530Z,1.80
2022-09-15T14:06:59.996Z,5.40
2022-09-15T14:09:33.398Z,0.43
2022-09-15T14:12:06.398Z,2.63
2022-09-15T14:14:42.119Z,2.87
2022-09-15T14:17:20.688Z,2.23
2022-09-15T14:19:50.212Z,2.67
2022-09-15T14:22:27.732Z,1.53
2022-09-15T14:24:57.203Z,5.80
2022-09-15T14:27:29.090Z,6.47
2022-09-15T14:29:58.973Z,1.27
2022-09-15T14:32:29.524Z,5.60
2022-09-15T14:35:01.370Z,1.70
2022-09-15T14:37:32.245Z,0.93
2022-09-15T14:40:02.093Z,3.43
2022-09-15T14:42:36.522Z,2.53
2022-09-15T14:48:07.478Z,1.53
2022-09-15T14:50:36.698Z,2.67
2022-09-15T14:53:06.756Z,0.97
2022-09-15T14:55:41.287Z,2.63
2022-09-15T14:58:16.730Z,1.40
2022-09-15T15:00:54.668Z,4.07
2022-09-15T15:03:31.549Z,1.53
2022-09-15T15:06:12.731Z,4.30
2022-09-15T15:08:58.100Z,2.63
2022-09-15T15:11:26.704Z,1.73
2022-09-15T15:13:57.678Z,1.87
2022-09-15T15:16:28.597Z,4.30
2022-09-15T15:18:57.309Z,2.03
2022-09-15T15:21:40.428Z,3.27
2022-09-15T15:27:40.866Z,3.47
2022-09-15T15:30:37.856Z,3.20
2022-09-15T15:33:10.922Z,2.83
2022-09-15T15:35:39.230Z,1.93
2022-09-15T15:38:13.959Z,1.87
2022-09-15T15:40:44.089Z,1.07
2022-09-15T15:43:24.363Z,2.30
2022-09-15T15:45:58.546Z,2.67
2022-09-15T15:48:27.965Z,0.93
2022-09-15T15:50:56.476Z,5.70
2022-09-15T15:53:25.072Z,2.20
2022-09-15T15:55:54.090Z,1.07
2022-09-15T15:58:23.718Z,2.67
2022-09-15T16:00:55.357Z,2.93
2022-09-15T16:03:24.528Z,2.00
2022-09-15T16:05:55.320Z,2.67
2022-09-15T16:08:29.849Z,0.87
2022-09-15T16:10:59.388Z,1.40
2022-09-15T16:13:28.582Z,1.57
2022-09-15T16:16:00.470Z,3.13
2022-09-15T16:18:29.861Z,0.53
2022-09-15T16:20:57.975Z,1.53
2022-09-15T16:23:26.106Z,4.43
2022-09-15T16:25:57.701Z,0.63
2022-09-15T16:28:25.744Z,5.53
2022-09-15T16:30:54.205Z,2.83
2022-09-15T16:33:24.127Z,3.30
2022-09-15T16:35:55.622Z,1.23
2022-09-15T16:38:26.056Z,2.87
2022-09-15T16:40:54.443Z,2.07
2022-09-15T16:43:24.048Z,6.77
2022-09-15T16:45:53.299Z,0.93
2022-09-15T16:48:24.636Z,6.37
2022-09-15T16:51:20.475Z,1.07
2022-09-15T16:53:42.691Z,2.17
2022-09-15T16:56:16.550Z,1.97
2022-09-15T16:58:48.700Z,2.17
2022-09-15T17:01:22.877Z,4.10
2022-09-15T17:03:55.132Z,3.50
2022-09-15T17:06:27.739Z,1.17
2022-09-15T17:08:57.008Z,4.67
2022-09-15T17:11:26.459Z,2.40
2022-09-15T17:13:54.879Z,8.03
2022-09-15T17:16:23.761Z,3.03
2022-09-15T17:18:53.634Z,2.10
2022-09-15T17:21:22.613Z,3.30
2022-09-15T17:23:51.316Z,2.67
2022-09-15T17:26:24.640Z,3.07
2022-09-15T17:28:55.901Z,2.07
2022-09-15T17:31:28.301Z,7.17
2022-09-15T17:33:58.542Z,2.60
2022-09-15T17:36:27.519Z,1.47
2022-09-15T17:38:55.869Z,2.93
2022-09-15T17:41:24.170Z,4.23
2022-09-15T17:43:52.484Z,2.43
2022-09-15T17:46:20.854Z,1.87
2022-09-15T17:48:50.803Z,1.60
2022-09-15T17:51:20.976Z,2.83
2022-09-15T17:53:49.033Z,4.97
2022-09-15T17:56:17.233Z,3.70
2022-09-15T17:58:46.122Z,2.17
2022-09-15T18:01:15.766Z,3.07
2022-09-15T18:03:45.296Z,2.00
2022-09-15T18:06:14.146Z,1.63
2022-09-15T18:08:43.895Z,3.27
2022-09-15T18:11:15.678Z,1.90
2022-09-15T18:13:43.864Z,1.13
2022-09-15T18:16:14.595Z,1.83
2022-09-15T18:18:43.400Z,4.50
2022-09-15T18:21:25.831Z,4.00
2022-09-15T18:23:57.640Z,2.27
2022-09-15T18:26:26.769Z,3.73
2022-09-15T18:28:56.066Z,1.67
2022-09-15T18:31:24.595Z,5.40
2022-09-15T18:33:52.922Z,2.63
2022-09-15T18:36:21.262Z,3.93
2022-09-15T18:38:49.557Z,3.57
2022-09-15T18:41:19.478Z,5.70
2022-09-15T18:43:49.214Z,3.50
2022-09-15T18:46:18.618Z,2.50
2022-09-15T18:48:47.058Z,4.77
2022-09-15T18:51:23.645Z,3.53
2022-09-15T18:53:54.443Z,2.77
2022-09-15T18:56:24.806Z,3.23
2022-09-15T18:58:57.331Z,2.67
2022-09-15T19:01:25.937Z,5.50
2022-09-15T19:03:54.360Z,3.57
2022-09-15T19:06:22.939Z,6.17
2022-09-15T19:08:51.321Z,10.13
2022-09-15T19:11:19.965Z,5.47
2022-09-15T19:13:49.586Z,7.80
2022-09-15T19:16:20.139Z,9.47
2022-09-15T19:18:51.516Z,10.47
2022-09-15T19:21:21.924Z,15.67
2022-09-15T19:23:56.678Z,14.07
2022-09-15T19:26:28.844Z,16.43
2022-09-15T19:28:59.274Z,10.00
2022-09-15T19:31:28.461Z,9.27
2022-09-15T19:33:58.589Z,7.30
2022-09-15T19:36:28.964Z,11.17
2022-09-15T19:38:57.546Z,4.33
2022-09-15T19:41:25.633Z,9.00
2022-09-15T19:43:53.989Z,5.40
2022-09-15T19:46:26.591Z,7.73
2022-09-15T19:48:55.549Z,8.97
2022-09-15T19:51:24.957Z,6.53
2022-09-15T19:53:56.007Z,8.93
2022-09-15T19:56:26.356Z,7.10
2022-09-15T19:58:55.859Z,8.87
2022-09-15T20:01:27.158Z,15.57
2022-09-15T20:03:56.226Z,13.87
2022-09-15T20:06:28.906Z,12.97
2022-09-15T20:09:00.733Z,13.27
2022-09-15T20:11:29.794Z,9.83
2022-09-15T20:13:58.669Z,8.27
2022-09-15T20:16:29.039Z,8.73
2022-09-15T20:18:57.537Z,10.07
2022-09-15T20:21:48.752Z,15.50
2022-09-15T20:24:16.452Z,13.37
2022-09-15T20:26:44.745Z,14.23
2022-09-15T20:29:13.235Z,15.83
2022-09-15T20:31:43.763Z,14.07
2022-09-15T20:34:11.945Z,14.70
2022-09-15T20:36:40.942Z,12.30
2022-09-15T20:39:13.553Z,16.03
2022-09-15T20:41:45.044Z,19.07
2022-09-15T20:44:13.521Z,19.53
2022-09-15T20:46:43.450Z,8.27
2022-09-15T20:49:12.402Z,10.23
2022-09-15T20:51:40.885Z,3.77
2022-09-15T20:54:09.262Z,8.07
2022-09-15T20:56:38.403Z,3.60
2022-09-15T20:59:10.613Z,10.80
2022-09-15T21:01:40.186Z,6.73
2022-09-15T21:04:10.980Z,6.17
2022-09-15T21:06:39.897Z,6.93
2022-09-15T21:09:08.799Z,5.80
2022-09-15T21:11:37.182Z,3.13
2022-09-15T21:14:05.522Z,4.80
2022-09-15T21:16:35.092Z,5.43
2022-09-15T21:19:03.487Z,7.67
2022-09-15T21:21:34.585Z,9.87
2022-09-15T21:24:05.059Z,5.47
2022-09-15T21:26:35.010Z,5.00
2022-09-15T21:29:04.404Z,9.67
2022-09-15T21:31:33.971Z,3.50
2022-09-15T21:34:02.228Z,2.53
2022-09-15T21:36:33.099Z,4.87
2022-09-15T21:39:02.852Z,3.73
2022-09-15T21:41:31.586Z,2.07
2022-09-15T21:44:01.304Z,3.20
2022-09-15T21:46:32.057Z,2.97
2022-09-15T21:49:01.586Z,2.93
2022-09-15T21:51:31.277Z,9.30
2022-09-15T21:54:01.675Z,6.90
2022-09-15T21:56:31.366Z,2.87
2022-09-15T21:58:59.776Z,3.50
2022-09-15T22:01:30.383Z,5.40
2022-09-15T22:04:00.370Z,6.00
2022-09-15T22:06:32.078Z,6.67
2022-09-15T22:09:03.318Z,7.27
2022-09-15T22:11:31.778Z,2.30
2022-09-15T22:14:00.132Z,6.17
2022-09-15T22:16:28.364Z,6.77
2022-09-15T22:18:57.217Z,3.07
2022-09-15T22:21:27.428Z,5.57
2022-09-15T22:23:57.363Z,4.77
2022-09-15T22:26:28.970Z,8.07
2022-09-15T22:28:57.838Z,6.00
2022-09-15T22:31:26.953Z,7.87
2022-09-15T22:33:55.718Z,6.63
2022-09-15T22:36:29.200Z,8.23
2022-09-15T22:39:03.925Z,10.13
2022-09-15T22:41:34.821Z,2.97
2022-09-15T22:44:03.620Z,6.97
2022-09-15T22:46:32.235Z,10.63
2022-09-15T22:49:00.539Z,6.30
2022-09-15T22:51:28.827Z,4.90
2022-09-15T22:53:57.663Z,3.60
2022-09-15T22:56:35.222Z,7.60
2022-09-15T22:59:03.471Z,4.40
2022-09-15T23:01:32.153Z,5.43
2022-09-15T23:04:02.476Z,5.93
2022-09-15T23:06:32.936Z,5.87
2022-09-15T23:09:03.461Z,4.90
2022-09-15T23:11:32.514Z,2.43
2022-09-15T23:14:02.931Z,3.97
2022-09-15T23:16:31.737Z,3.53
2022-09-15T23:19:00.426Z,4.27
2022-09-15T23:21:29.164Z,4.60
2022-09-15T23:23:57.495Z,4.17
2022-09-15T23:26:26.823Z,1.33
2022-09-15T23:28:56.394Z,5.53
2022-09-15T23:31:25.963Z,2.83
2022-09-15T23:33:54.180Z,2.73
2022-09-15T23:36:22.694Z,3.67
2022-09-15T23:38:51.084Z,4.30
2022-09-15T23:41:19.569Z,2.73
2022-09-15T23:43:48.013Z,5.10
2022-09-15T23:46:16.639Z,4.53
2022-09-15T23:48:46.131Z,3.73
2022-09-15T23:51:14.788Z,4.43
2022-09-15T23:53:43.006Z,2.90
2022-09-15T23:56:11.358Z,2.77
2022-09-15T23:58:39.982Z,2.80
